sensor_id;sensor_type;location;lat;lon;timestamp;pressure;altitude;pressure_sealevel;temperature;humidity
9717;BME280;4897;43.570;27.832;2023-02-18T00:02:21;99490.22;;;6.42;100.00
9717;BME280;4897;43.570;27.832;2023-02-18T00:04:49;99483.66;;;6.47;100.00
9717;BME280;4897;43.570;27.832;2023-02-18T00:07:16;99460.25;;;6.40;100.00
9717;BME280;4897;43.570;27.832;2023-02-18T00:09:43;99473.00;;;6.76;100.00
9717;BME280;4897;43.570;27.832;2023-02-18T00:12:10;99470.22;;;6.77;100.00
9717;BME280;4897;43.570;27.832;2023-02-18T00:14:37;99462.16;;;6.79;100.00
9717;BME280;4897;43.570;27.832;2023-02-18T00:17:04;99458.44;;;6.81;100.00
9717;BME280;4897;43.570;27.832;2023-02-18T00:19:31;99465.78;;;6.78;100.00
9717;BME280;4897;43.570;27.832;2023-02-18T00:21:59;99455.16;;;6.78;100.00
9717;BME280;4897;43.570;27.832;2023-02-18T00:24:26;99445.75;;;6.72;100.00
9717;BME280;4897;43.570;27.832;2023-02-18T00:26:53;99447.06;;;6.79;100.00
9717;BME280;4897;43.570;27.832;2023-02-18T00:29:20;99451.06;;;6.72;100.00
9717;BME280;4897;43.570;27.832;2023-02-18T00:31:47;99431.94;;;6.53;100.00
9717;BME280;4897;43.570;27.832;2023-02-18T00:34:14;99449.78;;;6.65;100.00
9717;BME280;4897;43.570;27.832;2023-02-18T00:36:41;99443.13;;;6.58;100.00
9717;BME280;4897;43.570;27.832;2023-02-18T00:39:10;99430.13;;;6.54;100.00
9717;BME280;4897;43.570;27.832;2023-02-18T00:41:38;99437.16;;;6.55;100.00
9717;BME280;4897;43.570;27.832;2023-02-18T00:44:05;99432.03;;;6.52;100.00
9717;BME280;4897;43.570;27.832;2023-02-18T00:46:32;99428.84;;;6.47;100.00
9717;BME280;4897;43.570;27.832;2023-02-18T00:49:00;99407.59;;;6.32;100.00
9717;BME280;4897;43.570;27.832;2023-02-18T00:51:27;99419.66;;;6.38;100.00
9717;BME280;4897;43.570;27.832;2023-02-18T00:53:54;99413.19;;;6.42;100.00
9717;BME280;4897;43.570;27.832;2023-02-18T00:56:23;99422.84;;;6.43;100.00
9717;BME280;4897;43.570;27.832;2023-02-18T00:58:50;99415.78;;;6.29;100.00
9717;BME280;4897;43.570;27.832;2023-02-18T01:01:18;99424.75;;;6.41;100.00
9717;BME280;4897;43.570;27.832;2023-02-18T01:03:45;99441.38;;;6.44;100.00
9717;BME280;4897;43.570;27.832;2023-02-18T01:06:12;99375.94;;;6.15;100.00
9717;BME280;4897;43.570;27.832;2023-02-18T01:08:39;99415.47;;;6.48;100.00
9717;BME280;4897;43.570;27.832;2023-02-18T01:11:08;99428.91;;;6.59;100.00
9717;BME280;4897;43.570;27.832;2023-02-18T01:13:38;99428.50;;;6.65;100.00
9717;BME280;4897;43.570;27.832;2023-02-18T01:16:05;99412.91;;;6.73;100.00
9717;BME280;4897;43.570;27.832;2023-02-18T01:18:33;99409.50;;;6.71;100.00
9717;BME280;4897;43.570;27.832;2023-02-18T01:21:00;99403.38;;;6.57;100.00
9717;BME280;4897;43.570;27.832;2023-02-18T01:23:27;99408.75;;;6.69;100.00
9717;BME280;4897;43.570;27.832;2023-02-18T01:25:56;99403.03;;;6.75;100.00
9717;BME280;4897;43.570;27.832;2023-02-18T01:28:23;99408.13;;;6.78;100.00
9717;BME280;4897;43.570;27.832;2023-02-18T01:30:52;99424.47;;;6.72;100.00
9717;BME280;4897;43.570;27.832;2023-02-18T01:33:19;99406.97;;;6.56;100.00
9717;BME280;4897;43.570;27.832;2023-02-18T01:35:47;99421.22;;;6.55;100.00
9717;BME280;4897;43.570;27.832;2023-02-18T01:38:13;99411.84;;;6.49;100.00
9717;BME280;4897;43.570;27.832;2023-02-18T01:40:45;99402.53;;;6.56;100.00
9717;BME280;4897;43.570;27.832;2023-02-18T01:43:13;99383.81;;;6.58;100.00
9717;BME280;4897;43.570;27.832;2023-02-18T01:45:56;99367.47;;;6.64;100.00
9717;BME280;4897;43.570;27.832;2023-02-18T01:48:27;99340.50;;;6.43;100.00
9717;BME280;4897;43.570;27.832;2023-02-18T01:51:00;99356.25;;;6.46;100.00
9717;BME280;4897;43.570;27.832;2023-02-18T01:53:32;99356.84;;;6.37;100.00
9717;BME280;4897;43.570;27.832;2023-02-18T01:56:03;99332.06;;;6.10;100.00
9717;BME280;4897;43.570;27.832;2023-02-18T01:58:32;99351.69;;;6.21;100.00
9717;BME280;4897;43.570;27.832;2023-02-18T02:01:00;99381.78;;;6.34;100.00
9717;BME280;4897;43.570;27.832;2023-02-18T02:03:27;99363.88;;;6.38;100.00
9717;BME280;4897;43.570;27.832;2023-02-18T02:05:54;99357.81;;;6.36;100.00
9717;BME280;4897;43.570;27.832;2023-02-18T02:08:21;99373.59;;;6.52;100.00
9717;BME280;4897;43.570;27.832;2023-02-18T02:11:01;99353.38;;;6.49;100.00
9717;BME280;4897;43.570;27.832;2023-02-18T02:13:42;99377.50;;;6.73;100.00
9717;BME280;4897;43.570;27.832;2023-02-18T02:16:17;99375.66;;;6.87;100.00
9717;BME280;4897;43.570;27.832;2023-02-18T02:18:57;99346.25;;;6.76;100.00
9717;BME280;4897;43.570;27.832;2023-02-18T02:31:07;99381.16;;;7.11;100.00
9717;BME280;4897;43.570;27.832;2023-02-18T02:34:18;99385.00;;;7.19;100.00
9717;BME280;4897;43.570;27.832;2023-02-18T02:36:50;99376.78;;;7.22;100.00
9717;BME280;4897;43.570;27.832;2023-02-18T02:39:25;99282.72;;;6.73;100.00
9717;BME280;4897;43.570;27.832;2023-02-18T02:42:01;99351.78;;;7.12;100.00
9717;BME280;4897;43.570;27.832;2023-02-18T02:44:31;99365.97;;;7.25;100.00
9717;BME280;4897;43.570;27.832;2023-02-18T02:47:09;99360.84;;;7.22;100.00
9717;BME280;4897;43.570;27.832;2023-02-18T02:49:46;99361.69;;;7.23;100.00
9717;BME280;4897;43.570;27.832;2023-02-18T02:52:17;99368.31;;;7.30;100.00
9717;BME280;4897;43.570;27.832;2023-02-18T02:54:47;99365.28;;;7.22;100.00
9717;BME280;4897;43.570;27.832;2023-02-18T02:57:43;99349.13;;;7.12;100.00
9717;BME280;4897;43.570;27.832;2023-02-18T03:00:12;99362.72;;;7.08;100.00
9717;BME280;4897;43.570;27.832;2023-02-18T03:05:45;99352.72;;;7.11;100.00
9717;BME280;4897;43.570;27.832;2023-02-18T03:08:29;99338.06;;;7.06;100.00
9717;BME280;4897;43.570;27.832;2023-02-18T03:11:04;99366.16;;;7.22;100.00
9717;BME280;4897;43.570;27.832;2023-02-18T03:13:40;99347.97;;;7.29;100.00
9717;BME280;4897;43.570;27.832;2023-02-18T03:16:16;99337.88;;;7.21;100.00
9717;BME280;4897;43.570;27.832;2023-02-18T03:18:56;99342.53;;;7.31;100.00
9717;BME280;4897;43.570;27.832;2023-02-18T03:21:29;99313.19;;;7.19;100.00
9717;BME280;4897;43.570;27.832;2023-02-18T03:24:01;99317.44;;;7.35;100.00
9717;BME280;4897;43.570;27.832;2023-02-18T03:26:29;99318.94;;;7.39;100.00
9717;BME280;4897;43.570;27.832;2023-02-18T03:28:59;99321.81;;;7.48;100.00
9717;BME280;4897;43.570;27.832;2023-02-18T03:31:29;99280.84;;;7.25;100.00
9717;BME280;4897;43.570;27.832;2023-02-18T03:34:01;99340.88;;;7.55;100.00
9717;BME280;4897;43.570;27.832;2023-02-18T03:36:31;99330.53;;;7.63;100.00
9717;BME280;4897;43.570;27.832;2023-02-18T03:39:03;99332.53;;;7.72;100.00
9717;BME280;4897;43.570;27.832;2023-02-18T03:41:31;99338.81;;;7.71;100.00
9717;BME280;4897;43.570;27.832;2023-02-18T03:44:00;99340.94;;;7.78;100.00
9717;BME280;4897;43.570;27.832;2023-02-18T03:46:28;99339.13;;;7.79;100.00
9717;BME280;4897;43.570;27.832;2023-02-18T03:48:55;99336.03;;;7.85;100.00
9717;BME280;4897;43.570;27.832;2023-02-18T03:51:22;99324.63;;;7.95;100.00
9717;BME280;4897;43.570;27.832;2023-02-18T03:53:50;99322.97;;;7.82;100.00
9717;BME280;4897;43.570;27.832;2023-02-18T03:56:18;99307.41;;;7.88;100.00
9717;BME280;4897;43.570;27.832;2023-02-18T03:58:45;99289.03;;;7.60;100.00
9717;BME280;4897;43.570;27.832;2023-02-18T04:01:12;99312.81;;;7.87;100.00
9717;BME280;4897;43.570;27.832;2023-02-18T04:03:39;99317.19;;;7.88;100.00
9717;BME280;4897;43.570;27.832;2023-02-18T04:06:07;99301.44;;;7.85;100.00
9717;BME280;4897;43.570;27.832;2023-02-18T04:08:34;99274.84;;;7.72;100.00
9717;BME280;4897;43.570;27.832;2023-02-18T04:11:03;99283.97;;;7.81;100.00
9717;BME280;4897;43.570;27.832;2023-02-18T04:13:30;99291.03;;;7.82;100.00
9717;BME280;4897;43.570;27.832;2023-02-18T04:15:57;99288.06;;;7.74;100.00
9717;BME280;4897;43.570;27.832;2023-02-18T04:18:24;99279.84;;;7.77;100.00
9717;BME280;4897;43.570;27.832;2023-02-18T04:20:51;99283.94;;;7.93;100.00
9717;BME280;4897;43.570;27.832;2023-02-18T04:23:18;99262.25;;;7.87;100.00
9717;BME280;4897;43.570;27.832;2023-02-18T04:25:45;99262.03;;;7.90;100.00
9717;BME280;4897;43.570;27.832;2023-02-18T04:28:15;99271.78;;;8.02;100.00
9717;BME280;4897;43.570;27.832;2023-02-18T04:30:42;99253.44;;;8.10;100.00
9717;BME280;4897;43.570;27.832;2023-02-18T04:33:09;99262.91;;;8.14;100.00
9717;BME280;4897;43.570;27.832;2023-02-18T04:35:36;99266.81;;;8.21;100.00
9717;BME280;4897;43.570;27.832;2023-02-18T04:38:05;99263.31;;;8.21;100.00
9717;BME280;4897;43.570;27.832;2023-02-18T04:40:32;99241.31;;;8.06;100.00
9717;BME280;4897;43.570;27.832;2023-02-18T04:42:59;99267.78;;;8.20;100.00
9717;BME280;4897;43.570;27.832;2023-02-18T04:45:28;99275.75;;;8.20;100.00
9717;BME280;4897;43.570;27.832;2023-02-18T04:47:54;99244.00;;;7.93;100.00
9717;BME280;4897;43.570;27.832;2023-02-18T04:50:21;99261.31;;;8.12;100.00
9717;BME280;4897;43.570;27.832;2023-02-18T04:52:49;99242.66;;;8.12;100.00
9717;BME280;4897;43.570;27.832;2023-02-18T04:55:16;99271.91;;;8.24;100.00
9717;BME280;4897;43.570;27.832;2023-02-18T04:57:43;99243.22;;;8.04;100.00
9717;BME280;4897;43.570;27.832;2023-02-18T05:00:15;99253.44;;;8.10;100.00
9717;BME280;4897;43.570;27.832;2023-02-18T05:02:44;99290.50;;;8.26;100.00
9717;BME280;4897;43.570;27.832;2023-02-18T05:05:12;99294.97;;;8.25;100.00
9717;BME280;4897;43.570;27.832;2023-02-18T05:07:39;99258.53;;;8.26;100.00
9717;BME280;4897;43.570;27.832;2023-02-18T05:10:10;99276.84;;;8.30;100.00
9717;BME280;4897;43.570;27.832;2023-02-18T05:12:37;99289.06;;;8.33;100.00
9717;BME280;4897;43.570;27.832;2023-02-18T05:15:05;99280.47;;;8.29;100.00
9717;BME280;4897;43.570;27.832;2023-02-18T05:17:32;99281.41;;;8.28;100.00
9717;BME280;4897;43.570;27.832;2023-02-18T05:20:01;99273.19;;;8.31;100.00
9717;BME280;4897;43.570;27.832;2023-02-18T05:22:28;99286.41;;;8.33;100.00
9717;BME280;4897;43.570;27.832;2023-02-18T05:24:55;99286.06;;;8.37;100.00
9717;BME280;4897;43.570;27.832;2023-02-18T05:27:22;99266.69;;;8.35;100.00
9717;BME280;4897;43.570;27.832;2023-02-18T05:29:49;99269.34;;;8.35;100.00
9717;BME280;4897;43.570;27.832;2023-02-18T05:32:16;99252.34;;;8.25;100.00
9717;BME280;4897;43.570;27.832;2023-02-18T05:34:43;99256.31;;;8.43;100.00
9717;BME280;4897;43.570;27.832;2023-02-18T05:37:11;99268.22;;;8.50;100.00
9717;BME280;4897;43.570;27.832;2023-02-18T05:39:45;99264.56;;;8.51;100.00
9717;BME280;4897;43.570;27.832;2023-02-18T05:42:12;99259.22;;;8.51;100.00
9717;BME280;4897;43.570;27.832;2023-02-18T05:44:39;99268.22;;;8.50;100.00
9717;BME280;4897;43.570;27.832;2023-02-18T05:47:08;99243.97;;;8.42;100.00
9717;BME280;4897;43.570;27.832;2023-02-18T05:49:37;99250.50;;;8.49;100.00
9717;BME280;4897;43.570;27.832;2023-02-18T05:52:04;99255.63;;;8.52;100.00
9717;BME280;4897;43.570;27.832;2023-02-18T05:54:33;99262.09;;;8.37;100.00
9717;BME280;4897;43.570;27.832;2023-02-18T05:57:01;99254.16;;;8.48;100.00
9717;BME280;4897;43.570;27.832;2023-02-18T05:59:28;99259.22;;;8.51;100.00
9717;BME280;4897;43.570;27.832;2023-02-18T06:01:55;99247.75;;;8.51;100.00
9717;BME280;4897;43.570;27.832;2023-02-18T06:04:22;99251.97;;;8.53;100.00
9717;BME280;4897;43.570;27.832;2023-02-18T06:06:49;99259.28;;;8.62;100.00
9717;BME280;4897;43.570;27.832;2023-02-18T06:09:16;99255.47;;;8.77;100.00
9717;BME280;4897;43.570;27.832;2023-02-18T06:11:44;99255.00;;;8.83;100.00
9717;BME280;4897;43.570;27.832;2023-02-18T06:14:11;99178.75;;;8.35;100.00
9717;BME280;4897;43.570;27.832;2023-02-18T06:16:38;99267.75;;;8.91;100.00
9717;BME280;4897;43.570;27.832;2023-02-18T06:19:05;99253.59;;;9.02;100.00
9717;BME280;4897;43.570;27.832;2023-02-18T06:21:32;99253.19;;;8.95;100.00
9717;BME280;4897;43.570;27.832;2023-02-18T06:23:59;99260.38;;;9.06;100.00
9717;BME280;4897;43.570;27.832;2023-02-18T06:26:26;99240.16;;;9.03;100.00
9717;BME280;4897;43.570;27.832;2023-02-18T06:28:54;99246.69;;;9.10;100.00
9717;BME280;4897;43.570;27.832;2023-02-18T06:31:21;99246.00;;;9.19;100.00
9717;BME280;4897;43.570;27.832;2023-02-18T06:33:48;99197.31;;;8.94;100.00
9717;BME280;4897;43.570;27.832;2023-02-18T06:36:15;99236.91;;;9.33;100.00
9717;BME280;4897;43.570;27.832;2023-02-18T06:38:45;99255.81;;;9.41;100.00
9717;BME280;4897;43.570;27.832;2023-02-18T06:41:13;99255.09;;;9.50;100.00
9717;BME280;4897;43.570;27.832;2023-02-18T06:43:40;99252.31;;;9.51;100.00
9717;BME280;4897;43.570;27.832;2023-02-18T06:46:08;99262.38;;;9.70;100.00
9717;BME280;4897;43.570;27.832;2023-02-18T06:48:36;99254.13;;;9.73;100.00
9717;BME280;4897;43.570;27.832;2023-02-18T06:51:04;99268.72;;;9.80;100.00
9717;BME280;4897;43.570;27.832;2023-02-18T06:53:31;99249.28;;;9.56;100.00
9717;BME280;4897;43.570;27.832;2023-02-18T06:55:58;99247.81;;;9.52;100.00
9717;BME280;4897;43.570;27.832;2023-02-18T06:58:25;99260.94;;;9.55;100.00
9717;BME280;4897;43.570;27.832;2023-02-18T07:00:52;99267.25;;;9.54;100.00
9717;BME280;4897;43.570;27.832;2023-02-18T07:03:20;99255.59;;;9.44;100.00
9717;BME280;4897;43.570;27.832;2023-02-18T07:05:47;99270.16;;;9.62;100.00
9717;BME280;4897;43.570;27.832;2023-02-18T07:08:14;99246.47;;;9.57;100.00
9717;BME280;4897;43.570;27.832;2023-02-18T07:10:41;99166.31;;;9.04;100.00
9717;BME280;4897;43.570;27.832;2023-02-18T07:13:08;99267.25;;;9.54;100.00
9717;BME280;4897;43.570;27.832;2023-02-18T07:15:35;99253.31;;;9.61;100.00
9717;BME280;4897;43.570;27.832;2023-02-18T07:18:02;99264.81;;;9.62;100.00
9717;BME280;4897;43.570;27.832;2023-02-18T07:20:33;99248.69;;;9.63;100.00
9717;BME280;4897;43.570;27.832;2023-02-18T07:23:00;99248.44;;;9.78;100.00
9717;BME280;4897;43.570;27.832;2023-02-18T07:25:27;99250.25;;;9.88;100.00
9717;BME280;4897;43.570;27.832;2023-02-18T07:27:54;99241.09;;;10.02;100.00
9717;BME280;4897;43.570;27.832;2023-02-18T07:30:21;99245.59;;;10.01;100.00
9717;BME280;4897;43.570;27.832;2023-02-18T07:32:50;99232.63;;;9.97;100.00
9717;BME280;4897;43.570;27.832;2023-02-18T07:35:17;99215.97;;;9.93;100.00
9717;BME280;4897;43.570;27.832;2023-02-18T07:37:48;99203.03;;;9.89;100.00
9717;BME280;4897;43.570;27.832;2023-02-18T07:40:19;99234.91;;;10.01;100.00
9717;BME280;4897;43.570;27.832;2023-02-18T07:42:47;99233.72;;;10.05;100.00
9717;BME280;4897;43.570;27.832;2023-02-18T07:45:14;99207.22;;;10.02;100.00
9717;BME280;4897;43.570;27.832;2023-02-18T07:47:41;99234.97;;;10.33;100.00
9717;BME280;4897;43.570;27.832;2023-02-18T07:50:10;99235.72;;;10.56;100.00
9717;BME280;4897;43.570;27.832;2023-02-18T07:52:37;99159.72;;;10.49;100.00
9717;BME280;4897;43.570;27.832;2023-02-18T07:55:06;99210.06;;;11.26;100.00
9717;BME280;4897;43.570;27.832;2023-02-18T07:57:33;99217.22;;;11.56;100.00
9717;BME280;4897;43.570;27.832;2023-02-18T08:00:20;99210.03;;;11.56;96.35
9717;BME280;4897;43.570;27.832;2023-02-18T08:02:47;99234.00;;;11.78;95.07
9717;BME280;4897;43.570;27.832;2023-02-18T08:05:14;99124.16;;;11.39;89.77
9717;BME280;4897;43.570;27.832;2023-02-18T08:07:41;99177.44;;;11.81;90.15
9717;BME280;4897;43.570;27.832;2023-02-18T08:10:09;99176.81;;;12.18;84.69
9717;BME280;4897;43.570;27.832;2023-02-18T08:12:36;99191.22;;;12.55;80.73
9717;BME280;4897;43.570;27.832;2023-02-18T08:15:03;99085.94;;;12.24;77.11
9717;BME280;4897;43.570;27.832;2023-02-18T08:17:30;99191.44;;;13.00;75.85
9717;BME280;4897;43.570;27.832;2023-02-18T08:19:57;99193.66;;;13.23;71.63
9717;BME280;4897;43.570;27.832;2023-02-18T08:22:24;99194.75;;;13.40;70.77
9717;BME280;4897;43.570;27.832;2023-02-18T08:24:53;99185.56;;;13.70;69.66
9717;BME280;4897;43.570;27.832;2023-02-18T08:27:22;99196.31;;;13.70;68.00
9717;BME280;4897;43.570;27.832;2023-02-18T08:29:49;99169.88;;;13.75;69.30
9717;BME280;4897;43.570;27.832;2023-02-18T08:32:16;99165.19;;;13.77;66.63
9717;BME280;4897;43.570;27.832;2023-02-18T08:34:43;99175.72;;;13.88;67.54
9717;BME280;4897;43.570;27.832;2023-02-18T08:37:10;99172.41;;;13.94;66.68
9717;BME280;4897;43.570;27.832;2023-02-18T08:39:37;99189.25;;;13.96;66.14
9717;BME280;4897;43.570;27.832;2023-02-18T08:42:07;99180.63;;;13.92;68.77
9717;BME280;4897;43.570;27.832;2023-02-18T08:44:35;99179.34;;;13.69;67.87
9717;BME280;4897;43.570;27.832;2023-02-18T08:47:02;99191.84;;;13.88;68.43
9717;BME280;4897;43.570;27.832;2023-02-18T08:49:29;99141.19;;;13.66;68.68
9717;BME280;4897;43.570;27.832;2023-02-18T08:51:56;99181.38;;;14.12;68.37
9717;BME280;4897;43.570;27.832;2023-02-18T08:54:23;99189.34;;;14.04;66.83
9717;BME280;4897;43.570;27.832;2023-02-18T08:56:54;99195.19;;;13.99;65.21
9717;BME280;4897;43.570;27.832;2023-02-18T08:59:22;99184.72;;;13.96;66.17
9717;BME280;4897;43.570;27.832;2023-02-18T09:01:50;99206.13;;;13.88;67.44
9717;BME280;4897;43.570;27.832;2023-02-18T09:04:17;99182.38;;;13.84;68.22
9717;BME280;4897;43.570;27.832;2023-02-18T09:06:45;99188.06;;;13.81;67.32
9717;BME280;4897;43.570;27.832;2023-02-18T09:09:13;99170.06;;;13.54;66.89
9717;BME280;4897;43.570;27.832;2023-02-18T09:11:39;99182.47;;;13.64;67.75
9717;BME280;4897;43.570;27.832;2023-02-18T09:14:06;99155.22;;;13.59;66.22
9717;BME280;4897;43.570;27.832;2023-02-18T09:16:34;99169.53;;;13.78;65.84
9717;BME280;4897;43.570;27.832;2023-02-18T09:19:04;99175.09;;;13.67;66.81
9717;BME280;4897;43.570;27.832;2023-02-18T09:21:33;99168.69;;;13.77;66.99
9717;BME280;4897;43.570;27.832;2023-02-18T09:24:00;99088.88;;;12.96;66.10
9717;BME280;4897;43.570;27.832;2023-02-18T09:26:27;99170.34;;;13.60;66.19
9717;BME280;4897;43.570;27.832;2023-02-18T09:28:55;99146.03;;;13.62;66.93
9717;BME280;4897;43.570;27.832;2023-02-18T09:31:24;99157.41;;;13.74;66.29
9717;BME280;4897;43.570;27.832;2023-02-18T09:33:53;99149.75;;;13.51;67.35
9717;BME280;4897;43.570;27.832;2023-02-18T09:36:22;99143.28;;;13.44;68.33
9717;BME280;4897;43.570;27.832;2023-02-18T09:38:52;99148.38;;;13.47;68.09
9717;BME280;4897;43.570;27.832;2023-02-18T09:41:28;99140.00;;;13.50;68.98
9717;BME280;4897;43.570;27.832;2023-02-18T09:44:01;99163.88;;;13.53;69.15
9717;BME280;4897;43.570;27.832;2023-02-18T09:46:32;99144.75;;;13.56;69.08
9717;BME280;4897;43.570;27.832;2023-02-18T09:49:03;99137.63;;;13.47;69.47
9717;BME280;4897;43.570;27.832;2023-02-18T09:51:34;99156.09;;;13.50;70.11
9717;BME280;4897;43.570;27.832;2023-02-18T09:54:01;99145.22;;;13.52;71.02
9717;BME280;4897;43.570;27.832;2023-02-18T09:56:30;99157.16;;;13.67;71.37
9717;BME280;4897;43.570;27.832;2023-02-18T09:59:03;99152.28;;;13.53;72.51
9717;BME280;4897;43.570;27.832;2023-02-18T10:01:32;99156.03;;;13.70;71.27
9717;BME280;4897;43.570;27.832;2023-02-18T10:04:04;99152.72;;;13.76;72.29
9717;BME280;4897;43.570;27.832;2023-02-18T10:06:35;99145.34;;;13.78;73.14
9717;BME280;4897;43.570;27.832;2023-02-18T10:09:05;99144.16;;;13.90;72.03
9717;BME280;4897;43.570;27.832;2023-02-18T10:11:39;99137.72;;;14.00;71.52
9717;BME280;4897;43.570;27.832;2023-02-18T10:14:10;99138.63;;;14.09;70.68
9717;BME280;4897;43.570;27.832;2023-02-18T10:16:37;99125.88;;;14.11;71.19
9717;BME280;4897;43.570;27.832;2023-02-18T10:19:17;99136.66;;;14.46;69.97
9717;BME280;4897;43.570;27.832;2023-02-18T10:21:47;99141.44;;;14.52;68.75
9717;BME280;4897;43.570;27.832;2023-02-18T10:24:24;99148.75;;;14.42;68.96
9717;BME280;4897;43.570;27.832;2023-02-18T10:26:51;98935.75;;;13.42;68.78
9717;BME280;4897;43.570;27.832;2023-02-18T10:29:22;99122.47;;;14.54;68.90
9717;BME280;4897;43.570;27.832;2023-02-18T10:31:54;99117.59;;;14.57;69.43
9717;BME280;4897;43.570;27.832;2023-02-18T10:34:30;99120.84;;;14.86;67.88
9717;BME280;4897;43.570;27.832;2023-02-18T10:37:17;99121.44;;;14.72;69.05
9717;BME280;4897;43.570;27.832;2023-02-18T10:39:57;99082.47;;;14.59;69.28
9717;BME280;4897;43.570;27.832;2023-02-18T10:42:33;99103.66;;;14.87;68.23
9717;BME280;4897;43.570;27.832;2023-02-18T10:45:13;99130.59;;;14.87;67.64
9717;BME280;4897;43.570;27.832;2023-02-18T10:47:50;99110.75;;;14.88;68.10
9717;BME280;4897;43.570;27.832;2023-02-18T10:50:25;99084.56;;;14.98;67.66
9717;BME280;4897;43.570;27.832;2023-02-18T10:52:58;99096.72;;;15.02;66.28
9717;BME280;4897;43.570;27.832;2023-02-18T10:55:34;99096.41;;;15.05;67.33
9717;BME280;4897;43.570;27.832;2023-02-18T10:58:01;99097.78;;;15.09;67.17
9717;BME280;4897;43.570;27.832;2023-02-18T11:00:33;99093.03;;;15.03;67.43
9717;BME280;4897;43.570;27.832;2023-02-18T11:03:13;99115.41;;;15.04;68.41
9717;BME280;4897;43.570;27.832;2023-02-18T11:05:42;99064.34;;;14.94;68.77
9717;BME280;4897;43.570;27.832;2023-02-18T11:08:18;99095.34;;;14.98;69.52
9717;BME280;4897;43.570;27.832;2023-02-18T11:10:46;99086.66;;;15.12;69.24
9717;BME280;4897;43.570;27.832;2023-02-18T11:13:16;99070.94;;;15.00;69.11
9717;BME280;4897;43.570;27.832;2023-02-18T11:15:57;99076.22;;;15.09;69.87
9717;BME280;4897;43.570;27.832;2023-02-18T11:18:35;99077.31;;;15.25;68.42
9717;BME280;4897;43.570;27.832;2023-02-18T11:21:05;99073.59;;;15.26;69.61
9717;BME280;4897;43.570;27.832;2023-02-18T11:23:44;99088.44;;;15.30;69.87
9717;BME280;4897;43.570;27.832;2023-02-18T11:26:14;99066.81;;;15.13;71.96
9717;BME280;4897;43.570;27.832;2023-02-18T11:28:43;99056.06;;;14.88;73.87
9717;BME280;4897;43.570;27.832;2023-02-18T11:31:19;99056.75;;;15.23;73.86
9717;BME280;4897;43.570;27.832;2023-02-18T11:33:52;99041.63;;;15.23;73.78
9717;BME280;4897;43.570;27.832;2023-02-18T11:36:23;98974.13;;;14.90;74.01
9717;BME280;4897;43.570;27.832;2023-02-18T11:38:54;99015.22;;;15.34;74.42
9717;BME280;4897;43.570;27.832;2023-02-18T11:41:30;99029.53;;;15.35;73.84
9717;BME280;4897;43.570;27.832;2023-02-18T11:43:58;99006.22;;;15.17;76.18
9717;BME280;4897;43.570;27.832;2023-02-18T11:46:27;99022.66;;;15.06;77.73
9717;BME280;4897;43.570;27.832;2023-02-18T11:48:54;99031.44;;;15.08;79.01
9717;BME280;4897;43.570;27.832;2023-02-18T11:51:24;99016.16;;;15.17;79.00
9717;BME280;4897;43.570;27.832;2023-02-18T11:53:59;99029.09;;;15.13;79.19
9717;BME280;4897;43.570;27.832;2023-02-18T11:56:53;99007.44;;;15.31;78.65
9717;BME280;4897;43.570;27.832;2023-02-18T11:59:21;98999.03;;;15.34;76.98
9717;BME280;4897;43.570;27.832;2023-02-18T12:01:52;98993.72;;;15.08;79.24
9717;BME280;4897;43.570;27.832;2023-02-18T12:04:25;99018.50;;;15.12;78.96
9717;BME280;4897;43.570;27.832;2023-02-18T12:07:04;98943.06;;;14.62;80.39
9717;BME280;4897;43.570;27.832;2023-02-18T12:09:36;98998.78;;;15.03;82.41
9717;BME280;4897;43.570;27.832;2023-02-18T12:12:10;99014.63;;;15.14;82.33
9717;BME280;4897;43.570;27.832;2023-02-18T12:14:40;99010.97;;;15.32;80.83
9717;BME280;4897;43.570;27.832;2023-02-18T12:17:21;99009.78;;;15.18;84.02
9717;BME280;4897;43.570;27.832;2023-02-18T12:22:59;98979.28;;;15.09;84.58
9717;BME280;4897;43.570;27.832;2023-02-18T12:25:36;98981.69;;;15.20;83.17
9717;BME280;4897;43.570;27.832;2023-02-18T12:28:23;98984.97;;;15.06;85.60
9717;BME280;4897;43.570;27.832;2023-02-18T12:31:20;99000.75;;;14.93;87.39
9717;BME280;4897;43.570;27.832;2023-02-18T12:34:13;99013.41;;;15.01;86.83
9717;BME280;4897;43.570;27.832;2023-02-18T12:36:57;98988.31;;;15.00;87.37
9717;BME280;4897;43.570;27.832;2023-02-18T12:39:44;98980.78;;;15.04;86.95
9717;BME280;4897;43.570;27.832;2023-02-18T12:42:30;98985.97;;;14.97;86.88
9717;BME280;4897;43.570;27.832;2023-02-18T12:45:16;98975.50;;;14.94;88.00
9717;BME280;4897;43.570;27.832;2023-02-18T12:48:08;98976.81;;;14.82;88.65
9717;BME280;4897;43.570;27.832;2023-02-18T12:50:46;98971.38;;;14.74;90.34
9717;BME280;4897;43.570;27.832;2023-02-18T12:53:40;98996.34;;;14.92;90.86
9717;BME280;4897;43.570;27.832;2023-02-18T12:59:34;98999.53;;;14.88;94.13
9717;BME280;4897;43.570;27.832;2023-02-18T13:02:18;99008.19;;;14.99;93.10
9717;BME280;4897;43.570;27.832;2023-02-18T13:04:53;98980.25;;;14.67;93.51
9717;BME280;4897;43.570;27.832;2023-02-18T13:07:45;98997.69;;;14.88;93.42
9717;BME280;4897;43.570;27.832;2023-02-18T13:10:34;99001.84;;;14.75;95.11
9717;BME280;4897;43.570;27.832;2023-02-18T13:13:10;98981.78;;;14.69;95.86
9717;BME280;4897;43.570;27.832;2023-02-18T13:15:41;98998.53;;;14.89;94.54
9717;BME280;4897;43.570;27.832;2023-02-18T13:18:14;98997.75;;;14.71;95.80
9717;BME280;4897;43.570;27.832;2023-02-18T13:20:44;99013.47;;;14.83;95.58
9717;BME280;4897;43.570;27.832;2023-02-18T13:23:17;99004.59;;;14.57;98.68
9717;BME280;4897;43.570;27.832;2023-02-18T13:25:46;99014.28;;;14.50;100.00
9717;BME280;4897;43.570;27.832;2023-02-18T13:28:22;98993.72;;;14.41;100.00
9717;BME280;4897;43.570;27.832;2023-02-18T13:31:01;98996.56;;;14.39;100.00
9717;BME280;4897;43.570;27.832;2023-02-18T13:33:37;99007.19;;;14.41;100.00
9717;BME280;4897;43.570;27.832;2023-02-18T13:36:15;98999.34;;;14.30;100.00
9717;BME280;4897;43.570;27.832;2023-02-18T13:38:55;99010.63;;;14.33;100.00
9717;BME280;4897;43.570;27.832;2023-02-18T13:41:25;98965.94;;;14.15;100.00
9717;BME280;4897;43.570;27.832;2023-02-18T13:43:53;98985.53;;;14.07;100.00
9717;BME280;4897;43.570;27.832;2023-02-18T13:46:23;98998.19;;;14.15;100.00
9717;BME280;4897;43.570;27.832;2023-02-18T13:48:53;98958.00;;;13.88;100.00